createdAt,value
2018-11-21T00:00:48.554Z,98120.99
2018-11-21T00:03:17.708Z,98119.71
2018-11-21T00:05:46.968Z,98119.02
2018-11-21T00:08:16.565Z,98126.42
2018-11-21T00:10:45.884Z,98120.19
2018-11-21T00:13:15.057Z,98124.30
2018-11-21T00:15:44.255Z,98120.75
2018-11-21T00:18:13.408Z,98124.61
2018-11-21T00:20:42.604Z,98125.91
2018-11-21T00:23:11.774Z,98122.55
2018-11-21T00:25:40.961Z,98123.98
2018-11-21T00:28:10.228Z,98120.67
2018-11-21T00:30:39.504Z,98118.22
2018-11-21T00:33:08.668Z,98120.61
2018-11-21T00:35:37.923Z,98126.28
2018-11-21T00:38:07.076Z,98126.16
2018-11-21T00:40:36.271Z,98130.65
2018-11-21T00:43:05.621Z,98127.54
2018-11-21T00:45:34.816Z,98129.86
2018-11-21T00:48:03.976Z,98128.64
2018-11-21T00:50:33.167Z,98129.95
2018-11-21T00:53:02.337Z,98136.60
2018-11-21T00:55:31.596Z,98141.65
2018-11-21T00:58:00.763Z,98138.25
2018-11-21T01:00:30.338Z,98135.42
2018-11-21T01:02:59.701Z,98140.13
2018-11-21T01:05:28.880Z,98145.67
2018-11-21T01:07:58.088Z,98148.73
2018-11-21T01:10:27.274Z,98144.64
2018-11-21T01:12:56.482Z,98144.91
2018-11-21T01:15:25.681Z,98148.91
2018-11-21T01:17:55.082Z,98150.05
2018-11-21T01:20:24.474Z,98155.13
2018-11-21T01:22:53.682Z,98152.41
2018-11-21T01:25:22.985Z,98144.50
2018-11-21T01:27:52.588Z,98138.30
2018-11-21T01:30:21.736Z,98141.83
2018-11-21T01:32:50.926Z,98139.48
2018-11-21T01:35:20.072Z,98144.06
2018-11-21T01:37:49.268Z,98147.72
2018-11-21T01:40:18.470Z,98143.37
2018-11-21T01:42:47.666Z,98144.41
2018-11-21T01:45:16.967Z,98140.30
2018-11-21T01:47:46.190Z,98142.54
2018-11-21T01:50:15.350Z,98139.15
2018-11-21T01:52:44.659Z,98138.67
2018-11-21T01:55:13.819Z,98136.09
2018-11-21T01:57:43.462Z,98134.90
2018-11-21T02:00:13.169Z,98135.03
2018-11-21T02:02:42.470Z,98137.62
2018-11-21T02:05:11.652Z,98132.09
2018-11-21T02:07:40.927Z,98134.80
2018-11-21T02:10:10.088Z,98135.48
2018-11-21T02:12:39.670Z,98132.80
2018-11-21T02:15:08.882Z,98133.73
2018-11-21T02:17:38.162Z,98135.86
2018-11-21T02:20:08.484Z,98135.27
2018-11-21T02:22:37.751Z,98124.31
2018-11-21T02:25:07.816Z,98130.42
2018-11-21T02:27:37.198Z,98140.53
2018-11-21T02:30:07.792Z,98138.91
2018-11-21T02:32:36.964Z,98132.55
2018-11-21T02:35:07.465Z,98129.03
2018-11-21T02:37:36.960Z,98122.56
2018-11-21T02:40:06.872Z,98127.96
2018-11-21T02:42:36.175Z,98135.38
2018-11-21T02:45:06.003Z,98144.53
2018-11-21T02:47:35.166Z,98136.78
2018-11-21T02:50:04.364Z,98140.42
2018-11-21T02:52:33.555Z,98144.66
2018-11-21T02:55:02.875Z,98131.14
2018-11-21T02:57:33.380Z,98122.56
2018-11-21T03:00:06.080Z,98127.74
2018-11-21T03:02:35.242Z,98132.67
2018-11-21T03:05:04.574Z,98145.38
2018-11-21T03:07:33.755Z,98149.25
2018-11-21T03:10:03.001Z,98149.83
2018-11-21T03:12:32.444Z,98150.43
2018-11-21T03:15:01.644Z,98153.12
2018-11-21T03:17:30.788Z,98153.12
2018-11-21T03:19:59.975Z,98154.91
2018-11-21T03:22:29.980Z,98162.29
2018-11-21T03:24:59.206Z,98154.77
2018-11-21T03:27:28.527Z,98158.77
2018-11-21T03:29:57.789Z,98158.88
2018-11-21T03:32:26.997Z,98170.05
2018-11-21T03:34:56.526Z,98177.71
2018-11-21T03:37:25.688Z,98178.98
2018-11-21T03:39:54.967Z,98176.39
2018-11-21T03:42:24.164Z,98180.66
2018-11-21T03:44:53.385Z,98185.36
2018-11-21T03:47:22.549Z,98185.95
2018-11-21T03:49:51.755Z,98183.01
2018-11-21T03:52:20.978Z,98177.11
2018-11-21T03:54:50.252Z,98179.59
2018-11-21T03:57:19.767Z,98180.16
2018-11-21T03:59:48.924Z,98189.22
2018-11-21T04:02:18.132Z,98187.10
2018-11-21T04:04:47.304Z,98194.75
2018-11-21T04:07:16.518Z,98198.77
2018-11-21T04:09:45.845Z,98195.22
2018-11-21T04:12:15.046Z,98192.53
2018-11-21T04:14:44.203Z,98191.12
2018-11-21T04:17:13.431Z,98192.67
2018-11-21T04:19:43.047Z,98203.70
2018-11-21T04:22:12.253Z,98211.47
2018-11-21T04:24:41.484Z,98213.24
2018-11-21T04:27:10.729Z,98219.03
2018-11-21T04:29:40.035Z,98225.37
2018-11-21T04:32:09.228Z,98228.31
2018-11-21T04:34:38.412Z,98234.77
2018-11-21T04:37:07.748Z,98228.65
2018-11-21T04:39:36.905Z,98232.32
2018-11-21T04:42:06.478Z,98239.46
2018-11-21T04:44:35.722Z,98241.81
2018-11-21T04:47:05.026Z,98245.00
2018-11-21T04:49:34.323Z,98246.39
2018-11-21T04:52:03.619Z,98247.95
2018-11-21T04:54:33.145Z,98246.53
2018-11-21T04:57:02.296Z,98257.44
2018-11-21T04:59:31.516Z,98259.56
2018-11-21T05:02:01.177Z,98255.02
2018-11-21T05:04:30.516Z,98255.01
2018-11-21T05:07:00.292Z,98137.55
2018-11-21T05:09:29.491Z,98267.62
2018-11-21T05:11:58.847Z,98271.98
2018-11-21T05:14:28.028Z,98270.45
2018-11-21T05:16:58.080Z,98271.52
2018-11-21T05:19:26.389Z,98274.45
2018-11-21T05:21:55.599Z,98274.34
2018-11-21T05:24:24.779Z,98271.39
2018-11-21T05:26:54.008Z,98276.19
2018-11-21T05:29:23.208Z,98281.62
2018-11-21T05:31:52.437Z,98273.52
2018-11-21T05:34:21.715Z,98277.41
2018-11-21T05:36:50.971Z,98277.98
2018-11-21T05:39:20.170Z,98268.42
2018-11-21T05:41:49.378Z,98269.95
2018-11-21T05:44:18.543Z,98277.97
2018-11-21T05:46:53.452Z,98277.16
2018-11-21T05:49:16.980Z,98279.63
2018-11-21T05:51:46.191Z,98276.10
2018-11-21T05:54:15.384Z,98278.81
2018-11-21T05:56:44.760Z,98279.02
2018-11-21T05:59:13.986Z,98274.33
2018-11-21T06:01:43.175Z,98280.91
2018-11-21T06:04:12.338Z,98286.92
2018-11-21T06:06:41.530Z,98287.37
2018-11-21T06:09:12.215Z,98289.69
2018-11-21T06:11:42.422Z,98303.95
2018-11-21T06:14:11.720Z,98302.77
2018-11-21T06:16:40.956Z,98301.70
2018-11-21T06:19:10.219Z,98309.05
2018-11-21T06:21:39.422Z,98307.20
2018-11-21T06:24:08.575Z,98310.66
2018-11-21T06:26:37.945Z,98307.24
2018-11-21T06:29:07.107Z,98307.80
2018-11-21T06:31:37.256Z,98308.91
2018-11-21T06:34:06.441Z,98316.94
2018-11-21T06:36:35.722Z,98323.37
2018-11-21T06:39:06.561Z,98330.07
2018-11-21T06:41:35.755Z,98335.42
2018-11-21T06:44:04.906Z,98339.35
2018-11-21T06:46:34.121Z,98341.70
2018-11-21T06:49:03.348Z,98336.12
2018-11-21T06:51:35.292Z,98333.02
2018-11-21T06:54:02.563Z,98341.60
2018-11-21T06:56:31.749Z,98353.74
2018-11-21T06:59:00.989Z,98352.06
2018-11-21T07:01:30.928Z,98359.73
2018-11-21T07:04:00.193Z,98361.38
2018-11-21T07:06:29.405Z,98365.88
2018-11-21T07:08:58.613Z,98367.72
2018-11-21T07:11:28.266Z,98379.42
2018-11-21T07:13:57.449Z,98374.78
2018-11-21T07:16:26.865Z,98371.77
2018-11-21T07:18:56.411Z,98378.45
2018-11-21T07:21:25.625Z,98382.31
2018-11-21T07:23:54.964Z,98386.68
2018-11-21T07:26:24.239Z,98394.86
2018-11-21T07:28:53.391Z,98399.73
2018-11-21T07:31:22.869Z,98394.80
2018-11-21T07:33:52.053Z,98397.09
2018-11-21T07:36:21.627Z,98401.95
2018-11-21T07:38:51.170Z,98410.71
2018-11-21T07:41:20.472Z,98411.83
2018-11-21T07:43:49.769Z,98415.94
2018-11-21T07:46:18.976Z,98406.83
2018-11-21T07:48:48.176Z,98412.66
2018-11-21T07:51:17.590Z,98414.70
2018-11-21T07:53:46.831Z,98415.95
2018-11-21T07:57:13.610Z,98410.44
2018-11-21T08:00:20.262Z,98412.34
2018-11-21T08:02:49.478Z,98406.38
2018-11-21T08:05:29.459Z,98411.23
2018-11-21T08:08:08.330Z,98404.14
2018-11-21T08:10:56.597Z,98404.14
2018-11-21T08:14:00.633Z,98416.55
2018-11-21T08:16:57.966Z,98418.85
2018-11-21T08:19:44.571Z,98425.45
2018-11-21T08:22:38.939Z,98427.20
2018-11-21T08:25:26.298Z,98427.66
2018-11-21T08:28:17.595Z,98423.61
2018-11-21T08:30:46.762Z,98415.62
2018-11-21T08:33:15.982Z,98430.78
2018-11-21T08:35:45.602Z,98433.77
2018-11-21T08:38:15.205Z,98440.66
2018-11-21T08:40:44.499Z,98435.97
2018-11-21T08:43:13.719Z,98442.95
2018-11-21T08:45:43.100Z,98442.88
2018-11-21T08:48:12.941Z,98437.76
2018-11-21T08:50:42.105Z,98442.94
2018-11-21T08:53:11.344Z,98444.17
2018-11-21T08:55:40.897Z,98442.95
2018-11-21T08:58:10.328Z,98343.67
2018-11-21T09:00:39.530Z,98442.89
2018-11-21T09:03:08.837Z,98442.45
2018-11-21T09:05:38.110Z,98447.06
2018-11-21T09:08:08.151Z,98447.91
2018-11-21T09:10:37.422Z,98453.45
2018-11-21T09:13:06.681Z,98454.67
2018-11-21T09:15:35.855Z,98457.59
2018-11-21T09:18:05.334Z,98456.66
2018-11-21T09:20:34.533Z,98459.41
2018-11-21T09:23:03.813Z,98470.67
2018-11-21T09:25:33.055Z,98479.80
2018-11-21T09:28:02.374Z,98485.34
2018-11-21T09:30:31.642Z,98480.88
2018-11-21T09:33:01.420Z,98480.20
2018-11-21T09:35:31.548Z,98492.42
2018-11-21T09:38:00.734Z,98496.05
2018-11-21T09:40:30.036Z,98493.44
2018-11-21T09:42:59.224Z,98495.62
2018-11-21T09:45:28.447Z,98497.42
2018-11-21T09:47:57.788Z,98471.56
2018-11-21T09:50:28.767Z,98489.14
2018-11-21T09:52:57.943Z,98492.59
2018-11-21T09:55:27.268Z,98485.72
2018-11-21T09:57:56.879Z,98487.31
2018-11-21T10:01:03.238Z,98486.56
2018-11-21T10:03:34.005Z,98492.31
2018-11-21T10:06:09.295Z,98486.05
2018-11-21T10:08:46.089Z,98479.96
2018-11-21T10:11:15.681Z,98483.86
2018-11-21T10:13:45.013Z,98488.91
2018-11-21T10:16:14.296Z,98488.09
2018-11-21T10:18:45.249Z,98484.84
2018-11-21T10:21:15.965Z,98486.06
2018-11-21T10:23:45.333Z,98487.55
2018-11-21T10:26:14.978Z,98478.89
2018-11-21T10:28:44.733Z,98476.22
2018-11-21T10:31:13.916Z,98476.41
2018-11-21T10:33:43.282Z,98476.31
2018-11-21T10:36:12.710Z,98481.91
2018-11-21T10:38:42.117Z,98490.07
2018-11-21T10:41:11.337Z,98495.95
2018-11-21T10:43:40.684Z,98501.89
2018-11-21T10:46:09.980Z,98503.67
2018-11-21T10:48:39.173Z,98499.87
2018-11-21T10:51:08.830Z,98505.98
2018-11-21T10:53:38.287Z,98511.12
2018-11-21T10:56:07.918Z,98504.09
2018-11-21T10:58:37.500Z,98516.94
2018-11-21T11:01:24.922Z,98506.66
2018-11-21T11:04:06.720Z,98511.84
2018-11-21T11:06:53.942Z,98511.61
2018-11-21T11:09:41.672Z,98507.41
2018-11-21T11:12:35.949Z,98527.09
2018-11-21T11:15:36.448Z,98529.94
2018-11-21T11:18:23.494Z,98524.28
2018-11-21T11:21:18.106Z,98528.29
2018-11-21T11:24:06.432Z,98528.14
2018-11-21T11:27:09.932Z,98526.48
2018-11-21T11:30:16.697Z,98516.81
2018-11-21T11:33:10.891Z,98524.35
2018-11-21T11:36:08.453Z,98515.67
2018-11-21T11:38:55.878Z,98513.06
2018-11-21T11:41:44.167Z,98506.77
2018-11-21T11:44:31.237Z,98509.43
2018-11-21T11:47:28.698Z,98507.27
2018-11-21T11:50:08.283Z,98505.61
2018-11-21T11:53:04.777Z,98503.22
2018-11-21T11:55:52.100Z,98507.97
2018-11-21T11:58:40.498Z,98509.41
2018-11-21T12:01:40.971Z,98509.88
2018-11-21T12:04:38.228Z,98516.95
2018-11-21T12:07:25.424Z,98516.71
2018-11-21T12:10:12.565Z,98525.31
2018-11-21T12:13:00.087Z,98518.00
2018-11-21T12:16:03.596Z,98527.21
2018-11-21T12:19:00.686Z,98527.91
2018-11-21T12:21:55.128Z,98523.19
2018-11-21T12:24:42.245Z,98525.34
2018-11-21T12:27:34.492Z,98526.39
2018-11-21T12:30:17.122Z,98519.69
2018-11-21T12:33:20.803Z,98519.88
2018-11-21T12:36:07.511Z,98518.36
2018-11-21T12:38:54.761Z,98521.09
2018-11-21T12:41:46.254Z,98515.18
2018-11-21T12:44:24.240Z,98518.62
2018-11-21T12:47:11.364Z,98517.89
2018-11-21T12:49:58.647Z,98519.42
2018-11-21T12:52:46.882Z,98510.11
2018-11-21T12:55:45.544Z,98512.94
2018-11-21T12:58:33.042Z,98509.89
2018-11-21T13:01:20.365Z,98513.30
2018-11-21T13:03:55.915Z,98513.17
2018-11-21T13:06:46.814Z,98510.00
2018-11-21T13:09:34.238Z,98514.31
2018-11-21T13:12:28.729Z,98517.48
2018-11-21T13:15:29.364Z,98519.63
2018-11-21T13:18:20.677Z,98527.80
2018-11-21T13:21:05.977Z,98524.72
2018-11-21T13:23:44.363Z,98528.91
2018-11-21T13:26:44.794Z,98526.64
2018-11-21T13:29:31.914Z,98530.39
2018-11-21T13:32:19.587Z,98526.41
2018-11-21T13:35:06.864Z,98524.97
2018-11-21T13:37:54.181Z,98534.19
2018-11-21T13:40:57.887Z,98534.39
2018-11-21T13:43:45.110Z,98536.50
2018-11-21T13:46:36.429Z,98536.78
2018-11-21T13:49:39.921Z,98534.63
2018-11-21T13:52:27.142Z,98535.09
2018-11-21T13:54:57.818Z,98538.19
2018-11-21T13:57:27.481Z,98540.31
2018-11-21T13:59:56.983Z,98534.38
2018-11-21T14:02:26.391Z,98541.00
2018-11-21T14:04:56.196Z,98540.88
2018-11-21T14:07:25.456Z,98547.65
2018-11-21T14:09:54.694Z,98552.54
2018-11-21T14:12:24.312Z,98546.75
2018-11-21T14:14:53.500Z,98551.76
2018-11-21T14:17:27.508Z,98556.43
2018-11-21T14:19:52.406Z,98557.48
2018-11-21T14:22:22.159Z,98555.65
2018-11-21T14:24:51.581Z,98564.97
2018-11-21T14:27:20.811Z,98566.86
2018-11-21T14:29:50.177Z,98566.66
2018-11-21T14:32:20.379Z,98563.64
2018-11-21T14:34:49.550Z,98564.72
2018-11-21T14:37:19.135Z,98563.91
2018-11-21T14:39:48.328Z,98570.88
2018-11-21T14:42:17.557Z,98572.88
2018-11-21T14:44:47.036Z,98575.52
2018-11-21T14:47:17.117Z,98570.87
2018-11-21T14:49:49.931Z,98564.20
2018-11-21T14:52:19.271Z,98577.20
2018-11-21T14:54:48.467Z,98587.52
2018-11-21T14:57:18.037Z,98578.30
2018-11-21T14:59:47.641Z,98566.95
2018-11-21T15:02:17.118Z,98570.59
2018-11-21T15:04:46.342Z,98573.20
2018-11-21T15:07:15.705Z,98574.30
2018-11-21T15:09:44.945Z,98575.78
2018-11-21T15:12:14.240Z,98574.73
2018-11-21T15:14:43.743Z,98583.89
2018-11-21T15:17:12.939Z,98587.78
2018-11-21T15:19:42.150Z,98588.37
2018-11-21T15:22:11.375Z,98586.16
2018-11-21T15:24:40.943Z,98590.50
2018-11-21T15:27:10.442Z,98585.47
2018-11-21T15:29:39.760Z,98593.94
2018-11-21T15:32:09.011Z,98605.45
2018-11-21T15:34:38.636Z,98604.72
2018-11-21T15:37:10.710Z,98605.39
2018-11-21T15:39:40.200Z,98615.53
2018-11-21T15:42:10.232Z,98614.50
2018-11-21T15:44:39.536Z,98615.50
2018-11-21T15:47:08.874Z,98612.38
2018-11-21T15:49:38.333Z,98611.85
2018-11-21T15:52:07.536Z,98614.77
2018-11-21T15:54:36.931Z,98620.86
2018-11-21T15:57:06.294Z,98622.27
2018-11-21T15:59:35.528Z,98623.02
2018-11-21T16:02:04.788Z,98629.25
2018-11-21T16:04:34.129Z,98631.83
2018-11-21T16:07:03.346Z,98633.75
2018-11-21T16:09:32.839Z,98641.95
2018-11-21T16:12:02.309Z,98639.91
2018-11-21T16:14:31.995Z,98641.22
2018-11-21T16:17:01.651Z,98638.89
2018-11-21T16:19:31.326Z,98641.39
2018-11-21T16:22:01.047Z,98638.32
2018-11-21T16:24:31.240Z,98643.57
2018-11-21T16:27:01.045Z,98642.72
2018-11-21T16:29:36.548Z,98640.26
2018-11-21T16:32:00.293Z,98646.74
2018-11-21T16:34:29.970Z,98645.55
2018-11-21T16:36:59.643Z,98655.23
2018-11-21T16:39:29.413Z,98651.99
2018-11-21T16:41:59.136Z,98654.28
2018-11-21T16:44:28.802Z,98654.31
2018-11-21T16:46:58.442Z,98664.39
2018-11-21T16:49:28.531Z,98663.53
2018-11-21T16:51:58.304Z,98668.48
2018-11-21T16:54:27.946Z,98666.65
2018-11-21T16:56:57.622Z,98670.44
2018-11-21T16:59:27.298Z,98674.51
2018-11-21T17:01:56.972Z,98673.06
2018-11-21T17:04:26.610Z,98672.59
2018-11-21T17:06:56.424Z,98678.03
2018-11-21T17:09:27.651Z,98677.66
2018-11-21T17:11:57.886Z,98674.76
2018-11-21T17:14:27.569Z,98682.45
2018-11-21T17:16:57.302Z,98677.45
2018-11-21T17:19:26.990Z,98681.90
2018-11-21T17:21:56.600Z,98691.27
2018-11-21T17:24:26.300Z,98689.08
2018-11-21T17:26:56.255Z,98695.27
2018-11-21T17:29:25.921Z,98694.53
2018-11-21T17:31:55.661Z,98695.79
2018-11-21T17:34:25.747Z,98693.02
2018-11-21T17:36:55.789Z,98691.55
2018-11-21T17:39:25.382Z,98695.02
2018-11-21T17:41:55.181Z,98695.24
2018-11-21T17:44:28.896Z,98694.72
2018-11-21T17:46:58.654Z,98695.05
2018-11-21T17:49:28.300Z,98701.12
2018-11-21T17:51:58.141Z,98699.38
2018-11-21T17:54:27.829Z,98696.28
2018-11-21T17:56:57.668Z,98694.76
2018-11-21T17:59:27.851Z,98699.73
2018-11-21T18:01:57.491Z,98702.02
2018-11-21T18:04:27.384Z,98701.31
2018-11-21T18:06:57.474Z,98715.22
2018-11-21T18:09:28.102Z,98707.81
2018-11-21T18:11:57.930Z,98717.28
2018-11-21T18:14:27.605Z,98705.66
2018-11-21T18:16:57.279Z,98709.59
2018-11-21T18:19:27.471Z,98714.53
2018-11-21T18:21:57.219Z,98714.78
2018-11-21T18:24:26.883Z,98717.20
2018-11-21T18:26:56.751Z,98722.36
2018-11-21T18:29:26.457Z,98722.70
2018-11-21T18:31:56.247Z,98723.11
2018-11-21T18:34:25.926Z,98722.45
2018-11-21T18:36:55.563Z,98721.64
2018-11-21T18:39:25.302Z,98725.44
2018-11-21T18:41:57.960Z,98719.33
2018-11-21T18:44:24.746Z,98718.20
2018-11-21T18:46:54.370Z,98720.55
2018-11-21T18:49:24.012Z,98730.97
2018-11-21T18:51:53.747Z,98732.70
2018-11-21T18:54:23.428Z,98728.94
2018-11-21T18:57:36.848Z,98725.92
2018-11-21T19:00:11.412Z,98730.45
2018-11-21T19:02:41.221Z,98731.16
